Anaheim, California
Current Conditions -  °F | °C
As of 2:53 AM on Sunday 21 Dec 2014 (Local Time) from KFUL Reporting Station
Haze Haze  
Wind Chill: 53°   Ceiling: Unl
Heat Index: 53°   Visibility: 4mi
Dew Point: 48°   Wind: 3mph
Humidity: 83%   Direction: 90°E
Pressure: 30.12"   Gusts: NA
Location:  33.83°N, 117.91°W
Report Text: KFUL 211053Z 09003KT 4SM HZ CLR 12/09 A3012 RMK AO2 SLP200 T01170089
Loading
Personal Weather Stations






























Interactive Weather Map New forecast layout! Learn more

10-Day Weather Forecast

Advertisements
Track Severe Weather on mobile